createdAt,value
2017-01-28T00:01:24.798Z,-7.47
2017-01-28T00:03:37.037Z,-7.53
2017-01-28T00:05:44.299Z,-7.58
2017-01-28T00:07:56.633Z,-7.63
2017-01-28T00:10:08.947Z,-7.67
2017-01-28T00:12:16.166Z,-7.68
2017-01-28T00:14:28.441Z,-7.71
2017-01-28T00:16:40.626Z,-7.68
2017-01-28T00:18:47.936Z,-7.67
2017-01-28T00:21:00.124Z,-7.69
2017-01-28T00:23:12.978Z,-7.69
2017-01-28T00:25:26.988Z,-7.69
2017-01-28T00:27:39.333Z,-7.66
2017-01-28T00:29:46.617Z,-7.66
2017-01-28T00:31:59.905Z,-7.72
2017-01-28T00:34:12.221Z,-7.77
2017-01-28T00:36:25.698Z,-7.81
2017-01-28T00:38:38.061Z,-7.89
2017-01-28T00:40:50.235Z,-7.97
2017-01-28T00:43:02.440Z,-8.03
2017-01-28T00:45:09.581Z,-8.1
2017-01-28T00:47:21.816Z,-8.15
2017-01-28T00:49:33.984Z,-8.18
2017-01-28T00:51:46.349Z,-8.21
2017-01-28T00:53:58.540Z,-8.23
2017-01-28T00:56:10.856Z,-8.26
2017-01-28T00:58:23.369Z,-8.29
2017-01-28T01:00:35.731Z,-8.3
2017-01-28T01:02:48.152Z,-8.31
2017-01-28T01:05:10.331Z,-8.31
2017-01-28T01:07:22.545Z,-8.32
2017-01-28T01:09:34.871Z,-8.33
2017-01-28T01:11:59.566Z,-8.36
2017-01-28T01:14:17.669Z,-8.39
2017-01-28T01:16:30.219Z,-8.39
2017-01-28T01:18:51.940Z,-8.41
2017-01-28T01:21:04.239Z,-8.44
2017-01-28T01:23:22.065Z,-8.43
2017-01-28T01:25:29.303Z,-8.43
2017-01-28T01:27:41.564Z,-8.44
2017-01-28T01:29:57.572Z,-8.46
2017-01-28T01:32:10.127Z,-8.5
2017-01-28T01:34:22.900Z,-8.52
2017-01-28T01:36:36.358Z,-8.52
2017-01-28T01:38:48.604Z,-8.53
2017-01-28T01:41:00.844Z,-8.55
2017-01-28T01:43:15.742Z,-8.57
2017-01-28T01:45:28.486Z,-8.63
2017-01-28T01:47:35.959Z,-8.67
2017-01-28T01:49:48.189Z,-8.69
2017-01-28T01:52:00.330Z,-8.68
2017-01-28T01:54:12.737Z,-8.73
2017-01-28T01:56:23.147Z,-8.77
2017-01-28T01:58:35.511Z,-8.77
2017-01-28T02:00:47.824Z,-8.79
2017-01-28T02:03:00.124Z,-8.81
2017-01-28T02:05:12.851Z,-8.84
2017-01-28T02:07:20.297Z,-8.88
2017-01-28T02:09:32.712Z,-8.91
2017-01-28T02:11:45.149Z,-8.92
2017-01-28T02:13:57.300Z,-8.93
2017-01-28T02:16:09.903Z,-8.92
2017-01-28T02:18:22.153Z,-8.91
2017-01-28T02:20:34.425Z,-8.89
2017-01-28T02:22:46.808Z,-8.88
2017-01-28T02:24:59.131Z,-8.88
2017-01-28T02:27:01.533Z,-8.86
2017-01-28T02:29:13.880Z,-8.87
2017-01-28T02:31:26.304Z,-8.89
2017-01-28T02:33:33.509Z,-8.92
2017-01-28T02:35:40.792Z,-8.92
2017-01-28T02:37:53.169Z,-8.94
2017-01-28T02:40:05.903Z,-8.97
2017-01-28T02:42:18.901Z,-9.03
2017-01-28T02:44:26.296Z,-9.08
2017-01-28T02:46:38.776Z,-9.12
2017-01-28T02:48:51.204Z,-9.14
2017-01-28T02:51:03.433Z,-9.15
2017-01-28T02:53:15.717Z,-9.18
2017-01-28T02:55:27.885Z,-9.2
2017-01-28T02:57:40.070Z,-9.22
2017-01-28T02:59:52.338Z,-9.23
2017-01-28T03:02:04.729Z,-9.22
2017-01-28T03:04:12.131Z,-9.21
2017-01-28T03:06:19.396Z,-9.22
2017-01-28T03:08:31.555Z,-9.23
2017-01-28T03:10:43.953Z,-9.24
2017-01-28T03:12:56.167Z,-9.23
2017-01-28T03:15:08.654Z,-9.24
2017-01-28T03:17:21.432Z,-9.25
2017-01-28T03:19:33.804Z,-9.27
2017-01-28T03:21:46.137Z,-9.28
2017-01-28T03:23:58.473Z,-9.3
2017-01-28T03:26:05.691Z,-9.31
2017-01-28T03:28:18.039Z,-9.32
2017-01-28T03:30:25.292Z,-9.32
2017-01-28T03:32:37.692Z,-9.33
2017-01-28T03:34:49.905Z,-9.33
2017-01-28T03:37:02.412Z,-9.31
2017-01-28T03:39:14.552Z,-9.3
2017-01-28T03:41:26.770Z,-9.32
2017-01-28T03:43:39.104Z,-9.34
2017-01-28T03:45:51.379Z,-9.37
2017-01-28T03:48:03.769Z,-9.39
2017-01-28T03:50:16.453Z,-9.41
2017-01-28T03:52:28.907Z,-9.42
2017-01-28T03:54:41.682Z,-9.39
2017-01-28T03:56:53.853Z,-9.37
2017-01-28T03:59:06.033Z,-9.37
2017-01-28T04:01:18.297Z,-9.35
2017-01-28T04:03:31.364Z,-9.31
2017-01-28T04:05:38.706Z,-9.29
2017-01-28T04:07:51.099Z,-9.29
2017-01-28T04:09:58.588Z,-9.3
2017-01-28T04:12:10.901Z,-9.32
2017-01-28T04:14:23.023Z,-9.32
2017-01-28T04:16:35.236Z,-9.31
2017-01-28T04:18:47.462Z,-9.33
2017-01-28T04:20:59.718Z,-9.34
2017-01-28T04:23:12.040Z,-9.32
2017-01-28T04:25:24.324Z,-9.29
2017-01-28T04:27:36.913Z,-9.28
2017-01-28T04:29:49.699Z,-9.27
2017-01-28T04:31:57.011Z,-9.28
2017-01-28T04:34:09.231Z,-9.28
2017-01-28T04:36:16.603Z,-9.26
2017-01-28T04:38:28.878Z,-9.25
2017-01-28T04:40:41.299Z,-9.24
2017-01-28T04:42:53.613Z,-9.25
2017-01-28T04:45:00.874Z,-9.23
2017-01-28T04:47:13.108Z,-9.25
2017-01-28T04:49:25.353Z,-9.28
2017-01-28T04:51:37.702Z,-9.33
2017-01-28T04:53:50.249Z,-9.41
2017-01-28T04:56:02.391Z,-9.51
2017-01-28T04:58:14.515Z,-9.61
2017-01-28T05:00:26.686Z,-9.69
2017-01-28T05:02:39.143Z,-9.77
2017-01-28T05:04:51.726Z,-9.83
2017-01-28T05:07:04.080Z,-9.88
2017-01-28T05:09:16.315Z,-9.91
2017-01-28T05:11:28.513Z,-9.92
2017-01-28T05:13:40.857Z,-9.91
2017-01-28T05:15:53.116Z,-9.9
2017-01-28T05:18:05.422Z,-9.92
2017-01-28T05:20:17.737Z,-9.92
2017-01-28T05:22:30.095Z,-9.89
2017-01-28T05:24:42.340Z,-9.88
2017-01-28T05:26:54.572Z,-9.86
2017-01-28T05:29:06.773Z,-9.82
2017-01-28T05:31:18.950Z,-9.8
2017-01-28T05:33:31.316Z,-9.78
2017-01-28T05:35:43.626Z,-9.77
2017-01-28T05:37:56.293Z,-9.76
2017-01-28T05:40:08.937Z,-9.75
2017-01-28T05:42:21.157Z,-9.74
2017-01-28T05:44:33.554Z,-9.74
2017-01-28T05:46:45.877Z,-9.73
2017-01-28T05:48:53.360Z,-9.72
2017-01-28T05:51:05.864Z,-9.71
2017-01-28T05:53:18.126Z,-9.66
2017-01-28T05:55:30.372Z,-9.64
2017-01-28T05:57:42.581Z,-9.63
2017-01-28T05:59:49.975Z,-9.62
2017-01-28T06:02:02.359Z,-9.61
2017-01-28T06:04:14.519Z,-9.62
2017-01-28T06:06:26.647Z,-9.7
2017-01-28T06:08:38.958Z,-9.79
2017-01-28T06:10:51.391Z,-9.89
2017-01-28T06:12:59.048Z,-9.95
2017-01-28T06:15:11.821Z,-10.02
2017-01-28T06:17:24.057Z,-10.07
2017-01-28T06:19:29.611Z,-10.09
2017-01-28T06:21:42.376Z,-10.09
2017-01-28T06:23:54.835Z,-10.09
2017-01-28T06:26:02.180Z,-10.11
2017-01-28T06:28:14.693Z,-10.12
2017-01-28T06:30:27.088Z,-10.11
2017-01-28T06:32:39.694Z,-10.11
2017-01-28T06:34:52.025Z,-10.1
2017-01-28T06:37:04.296Z,-10.1
2017-01-28T06:39:16.631Z,-10.1
2017-01-28T06:41:28.918Z,-10.11
2017-01-28T06:43:41.076Z,-10.1
2017-01-28T06:45:53.305Z,-10.07
2017-01-28T06:48:05.894Z,-10.04
2017-01-28T06:50:18.757Z,-10.02
2017-01-28T06:52:31.190Z,-9.98
2017-01-28T06:54:43.564Z,-9.93
2017-01-28T06:56:55.760Z,-9.88
2017-01-28T06:59:08.158Z,-9.78
2017-01-28T07:01:15.390Z,-9.69
2017-01-28T07:03:27.720Z,-9.61
2017-01-28T07:05:39.908Z,-9.56
2017-01-28T07:07:52.105Z,-9.5
2017-01-28T07:09:54.296Z,-9.45
2017-01-28T07:12:06.699Z,-9.39
2017-01-28T07:14:19.025Z,-9.32
2017-01-28T07:16:31.412Z,-9.25
2017-01-28T07:18:43.594Z,-9.15
2017-01-28T07:20:50.791Z,-9.05
2017-01-28T07:23:03.334Z,-8.95
2017-01-28T07:25:11.000Z,-8.85
2017-01-28T07:27:21.629Z,-8.74
2017-01-28T07:29:34.124Z,-8.61
2017-01-28T07:31:46.455Z,-8.5
2017-01-28T07:33:58.888Z,-8.42
2017-01-28T07:36:06.165Z,-8.36
2017-01-28T07:38:18.461Z,-8.32
2017-01-28T07:40:30.763Z,-8.25
2017-01-28T07:42:42.948Z,-8.15
2017-01-28T07:44:50.161Z,-8
2017-01-28T07:47:02.372Z,-7.9
2017-01-28T07:49:14.562Z,-7.81
2017-01-28T07:51:21.910Z,-7.71
2017-01-28T07:53:34.245Z,-7.63
2017-01-28T07:55:46.545Z,-7.53
2017-01-28T07:57:58.801Z,-7.43
2017-01-28T08:00:11.186Z,-7.34
2017-01-28T08:02:18.530Z,-7.26
2017-01-28T08:04:30.813Z,-7.15
2017-01-28T08:06:43.241Z,-7.04
2017-01-28T08:08:55.659Z,-6.93
2017-01-28T08:11:03.157Z,-6.83
2017-01-28T08:13:15.521Z,-6.72
2017-01-28T08:15:27.983Z,-6.62
2017-01-28T08:17:35.389Z,-6.51
2017-01-28T08:19:47.907Z,-6.4
2017-01-28T08:22:00.364Z,-6.28
2017-01-28T08:24:12.769Z,-6.14
2017-01-28T08:26:25.154Z,-5.99
2017-01-28T08:28:37.400Z,-5.82
2017-01-28T08:30:49.647Z,-5.66
2017-01-28T08:32:57.171Z,-5.51
2017-01-28T08:35:09.741Z,-5.38
2017-01-28T08:37:22.071Z,-5.23
2017-01-28T08:39:34.530Z,-5.11
2017-01-28T08:41:41.768Z,-5
2017-01-28T08:43:54.142Z,-4.86
2017-01-28T08:46:01.800Z,-4.71
2017-01-28T08:48:08.979Z,-4.54
2017-01-28T08:50:22.179Z,-4.39
2017-01-28T08:52:34.408Z,-4.23
2017-01-28T08:54:41.685Z,-4.09
2017-01-28T08:56:44.372Z,-3.95
2017-01-28T08:58:56.717Z,-3.78
2017-01-28T09:01:04.214Z,-3.61
2017-01-28T09:03:16.480Z,-3.48
2017-01-28T09:05:29.199Z,-3.35
2017-01-28T09:07:41.789Z,-3.19
2017-01-28T09:09:49.870Z,-3.02
2017-01-28T09:12:02.794Z,-2.65
2017-01-28T09:14:15.553Z,-2.32
2017-01-28T09:16:28.176Z,-2.1
2017-01-28T09:18:41.082Z,-1.84
2017-01-28T09:20:54.867Z,-1.52
2017-01-28T09:23:08.177Z,-1.08
2017-01-28T09:25:21.298Z,-0.82
2017-01-28T09:27:38.694Z,-0.58
2017-01-28T09:29:51.141Z,0.58
2017-01-28T09:32:03.310Z,3.26
2017-01-28T09:34:15.577Z,6.21
2017-01-28T09:36:27.844Z,8.17
2017-01-28T09:38:40.281Z,9.51
2017-01-28T09:40:52.616Z,10.64
2017-01-28T09:43:05.356Z,11.67
2017-01-28T09:45:18.134Z,12.62
2017-01-28T09:47:30.454Z,13.44
2017-01-28T09:49:42.776Z,14.2
2017-01-28T09:51:55.232Z,14.91
2017-01-28T09:54:02.552Z,15.47
2017-01-28T09:56:14.867Z,16.15
2017-01-28T09:58:27.306Z,16.84
2017-01-28T10:00:39.709Z,17.27
2017-01-28T10:02:52.020Z,17.98
2017-01-28T10:05:04.302Z,18.52
2017-01-28T10:07:15.058Z,18.61
2017-01-28T10:09:27.292Z,19.11
2017-01-28T10:11:39.618Z,19.74
2017-01-28T10:13:51.787Z,20.38
2017-01-28T10:16:04.377Z,21.04
2017-01-28T10:18:16.904Z,21.67
2017-01-28T10:20:29.570Z,22.19
2017-01-28T10:22:42.191Z,22.58
2017-01-28T10:24:49.502Z,22.51
2017-01-28T10:27:02.166Z,22.81
2017-01-28T10:29:14.683Z,23.31
2017-01-28T10:31:27.082Z,23.25
2017-01-28T10:33:39.282Z,23.66
2017-01-28T10:35:51.641Z,24.26
2017-01-28T10:38:04.116Z,24.76
2017-01-28T10:40:16.659Z,25.13
2017-01-28T10:42:23.878Z,25.48
2017-01-28T10:44:37.252Z,25.56
2017-01-28T10:46:45.688Z,25.64
2017-01-28T10:48:59.967Z,25.65
2017-01-28T10:51:16.018Z,25.98
2017-01-28T10:53:24.631Z,26.3
2017-01-28T10:55:38.860Z,26.45
2017-01-28T10:57:51.337Z,26.55
2017-01-28T11:00:05.229Z,26.63
2017-01-28T11:02:19.426Z,26.65
2017-01-28T11:04:33.106Z,26.78
2017-01-28T11:06:47.357Z,27.08
2017-01-28T11:09:01.296Z,27.32
2017-01-28T11:11:17.220Z,27.55
2017-01-28T11:13:31.960Z,27.81
2017-01-28T11:15:46.929Z,28.07
2017-01-28T11:18:01.544Z,28.37
2017-01-28T11:20:19.222Z,28.64
2017-01-28T11:22:35.286Z,28.91
2017-01-28T11:24:47.590Z,29.01
2017-01-28T11:26:57.090Z,28.82
2017-01-28T11:29:10.447Z,29.17
2017-01-28T11:31:25.543Z,29.32
2017-01-28T11:33:39.005Z,29.41
2017-01-28T11:35:51.241Z,29.05
2017-01-28T11:38:03.503Z,29.18
2017-01-28T11:40:15.830Z,29.53
2017-01-28T11:42:28.003Z,29.82
2017-01-28T11:44:41.546Z,29.53
2017-01-28T11:46:55.122Z,29.34
2017-01-28T11:49:07.964Z,29.71
2017-01-28T11:51:20.845Z,29.77
2017-01-28T11:53:33.087Z,29.12
2017-01-28T11:55:45.680Z,29.67
2017-01-28T11:57:58.075Z,29.58
2017-01-28T12:00:05.492Z,28.53
2017-01-28T12:02:18.023Z,27.61
2017-01-28T12:04:30.647Z,26.76
2017-01-28T12:06:38.210Z,27.76
2017-01-28T12:08:50.536Z,27
2017-01-28T12:11:03.199Z,27.34
2017-01-28T12:13:15.536Z,26.98
2017-01-28T12:15:27.895Z,28.08
2017-01-28T12:17:40.386Z,27.47
2017-01-28T12:19:47.911Z,26.14
2017-01-28T12:21:55.158Z,25.7
2017-01-28T12:24:07.448Z,25.06
2017-01-28T12:26:19.678Z,23.76
2017-01-28T12:28:25.494Z,22.78
2017-01-28T12:30:37.844Z,22.34
2017-01-28T12:32:50.245Z,21.82
2017-01-28T12:35:02.577Z,21.65
2017-01-28T12:37:14.806Z,22.71
2017-01-28T12:39:27.181Z,22.4
2017-01-28T12:41:39.759Z,22.43
2017-01-28T12:43:52.135Z,22.77
2017-01-28T12:46:04.469Z,22.38
2017-01-28T12:48:16.757Z,22.37
2017-01-28T12:50:22.684Z,22.39
2017-01-28T12:52:35.515Z,22.25
2017-01-28T12:54:42.687Z,21.63
2017-01-28T12:56:55.187Z,21.29
2017-01-28T12:59:07.574Z,21.55
2017-01-28T13:01:15.024Z,21.74
2017-01-28T13:03:27.416Z,21.55
2017-01-28T13:05:39.829Z,22.3
2017-01-28T13:07:52.098Z,21.76
2017-01-28T13:10:04.659Z,21.13
2017-01-28T13:12:17.150Z,21.39
2017-01-28T13:14:29.728Z,20.59
2017-01-28T13:16:42.236Z,20.09
2017-01-28T13:18:44.593Z,20.61
2017-01-28T13:20:56.866Z,20.7
2017-01-28T13:23:09.235Z,20.6
2017-01-28T13:25:21.524Z,20.12
2017-01-28T13:27:29.007Z,18.97
2017-01-28T13:29:36.379Z,19.66
2017-01-28T13:31:43.740Z,19.54
2017-01-28T13:33:56.093Z,19.08
2017-01-28T13:36:08.437Z,19.66
2017-01-28T13:38:15.695Z,20.27
2017-01-28T13:40:23.025Z,20.21
2017-01-28T13:42:35.423Z,20.35
2017-01-28T13:44:42.775Z,20.36
2017-01-28T13:46:55.368Z,20.4
2017-01-28T13:49:08.289Z,20.11
2017-01-28T13:51:15.595Z,20.51
2017-01-28T13:53:27.773Z,21.32
2017-01-28T13:55:35.055Z,22.12
2017-01-28T13:57:47.441Z,22.79
2017-01-28T13:59:59.811Z,23.11
2017-01-28T14:02:07.057Z,23.04
2017-01-28T14:04:19.520Z,23.11
2017-01-28T14:06:31.716Z,23.39
2017-01-28T14:08:44.172Z,23.07
2017-01-28T14:10:56.761Z,22.71
2017-01-28T14:13:09.166Z,22.25
2017-01-28T14:15:21.434Z,21.86
2017-01-28T14:17:33.785Z,21.26
2017-01-28T14:19:46.061Z,21.3
2017-01-28T14:21:58.478Z,21.72
2017-01-28T14:24:09.146Z,22.01
2017-01-28T14:26:21.408Z,21.96
2017-01-28T14:28:28.655Z,21.56
2017-01-28T14:30:40.951Z,21.15
2017-01-28T14:32:48.130Z,20.79
2017-01-28T14:35:00.684Z,20.72
2017-01-28T14:37:08.200Z,20.5
2017-01-28T14:39:20.676Z,19.72
2017-01-28T14:41:33.037Z,18.76
2017-01-28T14:43:38.555Z,17.56
2017-01-28T14:45:50.908Z,16.63
2017-01-28T14:47:56.524Z,16.03
2017-01-28T14:50:04.051Z,15.45
2017-01-28T14:52:16.361Z,14.9
2017-01-28T14:54:28.748Z,14.43
2017-01-28T14:56:41.430Z,13.88
2017-01-28T14:58:53.704Z,13.41
2017-01-28T15:01:06.055Z,13.02
2017-01-28T15:03:18.546Z,12.68
2017-01-28T15:05:30.999Z,12.25
2017-01-28T15:07:43.275Z,11.79
2017-01-28T15:09:55.391Z,11.28
2017-01-28T15:12:07.623Z,10.75
2017-01-28T15:14:19.984Z,10.32
2017-01-28T15:16:27.395Z,9.97
2017-01-28T15:18:39.745Z,9.63
2017-01-28T15:20:51.918Z,9.25
2017-01-28T15:23:04.106Z,8.93
2017-01-28T15:25:16.572Z,8.68
2017-01-28T15:27:29.353Z,8.44
2017-01-28T15:29:40.217Z,8.26
2017-01-28T15:31:50.921Z,8.07
2017-01-28T15:34:03.408Z,7.86
2017-01-28T15:36:15.912Z,7.63
2017-01-28T15:38:28.130Z,7.38
2017-01-28T15:40:40.734Z,7.09
2017-01-28T15:42:53.101Z,6.76
2017-01-28T15:45:05.525Z,6.44
2017-01-28T15:47:17.751Z,6.15
2017-01-28T15:49:30.278Z,5.87
2017-01-28T15:51:42.709Z,5.57
2017-01-28T15:53:55.133Z,5.28
2017-01-28T15:56:02.427Z,5.03
2017-01-28T15:58:14.722Z,4.77
2017-01-28T16:00:26.904Z,4.52
2017-01-28T16:02:39.283Z,4.27
2017-01-28T16:04:51.810Z,4.04
2017-01-28T16:07:04.266Z,3.84
2017-01-28T16:09:16.541Z,3.64
2017-01-28T16:11:28.984Z,3.48
2017-01-28T16:13:36.466Z,3.32
2017-01-28T16:15:48.856Z,3.16
2017-01-28T16:18:01.677Z,2.99
2017-01-28T16:20:13.848Z,2.86
2017-01-28T16:22:21.063Z,2.73
2017-01-28T16:24:33.453Z,2.61
2017-01-28T16:26:45.850Z,2.49
2017-01-28T16:28:58.359Z,2.35
2017-01-28T16:31:10.780Z,2.22
2017-01-28T16:33:23.265Z,2.07
2017-01-28T16:35:35.643Z,1.92
2017-01-28T16:37:47.943Z,1.77
2017-01-28T16:40:00.297Z,1.64
2017-01-28T16:42:12.805Z,1.53
2017-01-28T16:44:24.977Z,1.43
2017-01-28T16:46:37.220Z,1.34
2017-01-28T16:48:49.574Z,1.25
2017-01-28T16:51:02.209Z,1.16
2017-01-28T16:53:14.416Z,1.07
2017-01-28T16:55:26.788Z,0.99
2017-01-28T16:57:39.011Z,0.92
2017-01-28T16:59:41.261Z,0.84
2017-01-28T17:01:53.663Z,0.77
2017-01-28T17:04:06.116Z,0.68
2017-01-28T17:06:18.309Z,0.6
2017-01-28T17:08:30.539Z,0.54
2017-01-28T17:10:42.772Z,0.45
2017-01-28T17:12:55.145Z,0.39
2017-01-28T17:15:07.765Z,0.32
2017-01-28T17:17:20.205Z,0.25
2017-01-28T17:19:32.484Z,0.18
2017-01-28T17:21:44.750Z,0.12
2017-01-28T17:23:57.212Z,0.07
2017-01-28T17:26:09.567Z,0.03
2017-01-28T17:28:22.008Z,-0.02
2017-01-28T17:30:34.363Z,-0.06
2017-01-28T17:32:46.618Z,-0.09
2017-01-28T17:34:59.059Z,-0.12
2017-01-28T17:37:11.388Z,-0.18
2017-01-28T17:39:18.778Z,-0.24
2017-01-28T17:41:31.302Z,-0.29
2017-01-28T17:43:43.538Z,-0.34
2017-01-28T17:45:50.759Z,-0.39
2017-01-28T17:48:03.149Z,-0.44
2017-01-28T17:50:15.370Z,-0.49
2017-01-28T17:52:27.984Z,-0.52
2017-01-28T17:54:41.591Z,-0.58
2017-01-28T17:56:53.940Z,-0.61
2017-01-28T17:59:06.242Z,-0.63
2017-01-28T18:01:18.534Z,-0.68
2017-01-28T18:03:30.839Z,-0.73
2017-01-28T18:05:43.140Z,-0.77
2017-01-28T18:07:55.455Z,-0.82
2017-01-28T18:10:07.740Z,-0.83
2017-01-28T18:12:20.121Z,-0.86
2017-01-28T18:14:32.359Z,-0.89
2017-01-28T18:16:44.777Z,-0.92
2017-01-28T18:18:57.175Z,-0.95
2017-01-28T18:21:09.370Z,-0.99
2017-01-28T18:23:21.923Z,-1.02
2017-01-28T18:25:34.662Z,-1.05
2017-01-28T18:27:47.124Z,-1.07
2017-01-28T18:29:59.684Z,-1.09
2017-01-28T18:32:02.075Z,-1.13
2017-01-28T18:34:14.472Z,-1.18
2017-01-28T18:36:26.907Z,-1.21
2017-01-28T18:38:39.068Z,-1.26
2017-01-28T18:40:46.499Z,-1.3
2017-01-28T18:42:58.905Z,-1.33
2017-01-28T18:45:09.580Z,-1.37
2017-01-28T18:47:17.004Z,-1.39
2017-01-28T18:49:29.194Z,-1.42
2017-01-28T18:51:41.508Z,-1.44
2017-01-28T18:53:53.708Z,-1.45
2017-01-28T18:56:06.140Z,-1.46
2017-01-28T18:58:18.400Z,-1.52
2017-01-28T19:00:30.631Z,-1.61
2017-01-28T19:02:43.212Z,-1.72
2017-01-28T19:04:50.612Z,-1.8
2017-01-28T19:07:03.002Z,-1.89
2017-01-28T19:09:15.466Z,-1.98
2017-01-28T19:11:28.022Z,-2.05
2017-01-28T19:13:40.257Z,-2.09
2017-01-28T19:15:52.525Z,-2.13
2017-01-28T19:18:00.363Z,-2.16
2017-01-28T19:20:12.639Z,-2.19
2017-01-28T19:22:19.913Z,-2.21
2017-01-28T19:24:32.185Z,-2.2
2017-01-28T19:26:44.518Z,-2.19
2017-01-28T19:28:56.725Z,-2.21
2017-01-28T19:31:04.100Z,-2.27
2017-01-28T19:33:16.518Z,-2.32
2017-01-28T19:35:33.311Z,-2.35
2017-01-28T19:37:45.754Z,-2.37
2017-01-28T19:39:58.182Z,-2.41
2017-01-28T19:42:12.029Z,-2.45
2017-01-28T19:44:24.370Z,-2.5
2017-01-28T19:46:36.780Z,-2.55
2017-01-28T19:48:49.082Z,-2.6
2017-01-28T19:51:01.631Z,-2.66
2017-01-28T19:53:14.101Z,-2.72
2017-01-28T19:55:26.363Z,-2.76
2017-01-28T19:57:33.783Z,-2.78
2017-01-28T19:59:46.044Z,-2.78
2017-01-28T20:01:53.392Z,-2.78
2017-01-28T20:04:05.999Z,-2.78
2017-01-28T20:06:13.459Z,-2.82
2017-01-28T20:08:25.831Z,-2.85
2017-01-28T20:10:38.132Z,-2.89
2017-01-28T20:12:45.409Z,-2.95
2017-01-28T20:14:57.989Z,-3.04
2017-01-28T20:17:10.269Z,-3.11
2017-01-28T20:19:22.703Z,-3.18
2017-01-28T20:21:35.095Z,-3.22
2017-01-28T20:23:47.530Z,-3.27
2017-01-28T20:25:59.722Z,-3.32
2017-01-28T20:28:12.173Z,-3.37
2017-01-28T20:30:19.612Z,-3.4
2017-01-28T20:32:31.853Z,-3.45
2017-01-28T20:34:39.312Z,-3.5
2017-01-28T20:36:51.765Z,-3.53
2017-01-28T20:39:02.490Z,-3.57
2017-01-28T20:41:09.955Z,-3.6
2017-01-28T20:43:22.154Z,-3.64
2017-01-28T20:45:34.483Z,-3.68
2017-01-28T20:47:47.220Z,-3.73
2017-01-28T20:49:54.707Z,-3.76
2017-01-28T20:52:02.147Z,-3.79
2017-01-28T20:54:09.349Z,-3.83
2017-01-28T20:56:21.805Z,-3.85
2017-01-28T20:58:34.068Z,-3.9
2017-01-28T21:00:46.465Z,-3.95
2017-01-28T21:02:58.804Z,-3.99
2017-01-28T21:05:11.295Z,-4.03
2017-01-28T21:07:23.767Z,-4.07
2017-01-28T21:09:36.108Z,-4.11
2017-01-28T21:11:48.439Z,-4.15
2017-01-28T21:13:55.888Z,-4.17
2017-01-28T21:16:08.203Z,-4.18
2017-01-28T21:18:15.637Z,-4.18
2017-01-28T21:20:28.189Z,-4.2
2017-01-28T21:22:35.541Z,-4.25
2017-01-28T21:24:48.014Z,-4.32
2017-01-28T21:26:55.272Z,-4.37
2017-01-28T21:29:07.659Z,-4.43
2017-01-28T21:31:20.181Z,-4.47
2017-01-28T21:33:32.577Z,-4.5
2017-01-28T21:35:45.109Z,-4.53
2017-01-28T21:37:57.880Z,-4.58
2017-01-28T21:40:10.472Z,-4.61
2017-01-28T21:42:23.004Z,-4.65
2017-01-28T21:44:35.235Z,-4.66
2017-01-28T21:46:42.662Z,-4.68
2017-01-28T21:48:55.121Z,-4.69
2017-01-28T21:51:07.789Z,-4.71
2017-01-28T21:53:18.501Z,-4.71
2017-01-28T21:55:31.798Z,-4.74
2017-01-28T21:57:44.644Z,-4.77
2017-01-28T21:59:52.329Z,-4.78
2017-01-28T22:02:00.149Z,-4.78
2017-01-28T22:04:12.825Z,-4.76
2017-01-28T22:06:20.042Z,-4.75
2017-01-28T22:08:32.367Z,-4.77
2017-01-28T22:10:44.944Z,-4.78
2017-01-28T22:12:52.179Z,-4.76
2017-01-28T22:15:04.549Z,-4.77
2017-01-28T22:17:16.908Z,-4.81
2017-01-28T22:19:29.570Z,-4.85
2017-01-28T22:21:41.932Z,-4.9
2017-01-28T22:23:54.133Z,-4.94
2017-01-28T22:26:06.569Z,-4.99
2017-01-28T22:28:19.137Z,-5.02
2017-01-28T22:30:31.592Z,-5.05
2017-01-28T22:32:44.333Z,-5.1
2017-01-28T22:34:57.111Z,-5.14
2017-01-28T22:37:04.795Z,-5.18
2017-01-28T22:39:17.099Z,-5.22
2017-01-28T22:41:29.477Z,-5.27
2017-01-28T22:43:36.690Z,-5.32
2017-01-28T22:45:49.003Z,-5.37
2017-01-28T22:48:01.222Z,-5.41
2017-01-28T22:50:13.685Z,-5.46
2017-01-28T22:52:26.002Z,-5.51
2017-01-28T22:54:33.279Z,-5.53
2017-01-28T22:56:40.773Z,-5.57
2017-01-28T22:58:53.328Z,-5.58
2017-01-28T23:01:05.830Z,-5.6
2017-01-28T23:03:18.230Z,-5.61
2017-01-28T23:05:30.655Z,-5.62
2017-01-28T23:07:43.189Z,-5.64
2017-01-28T23:09:55.855Z,-5.67
2017-01-28T23:12:08.449Z,-5.7
2017-01-28T23:14:20.675Z,-5.75
2017-01-28T23:16:32.860Z,-5.79
2017-01-28T23:18:45.038Z,-5.82
2017-01-28T23:20:57.377Z,-5.84
2017-01-28T23:23:09.777Z,-5.88
2017-01-28T23:25:20.340Z,-5.91
2017-01-28T23:27:32.777Z,-5.93
2017-01-28T23:29:45.074Z,-5.98
2017-01-28T23:31:57.555Z,-6.01
2017-01-28T23:33:59.849Z,-6.04
2017-01-28T23:36:12.311Z,-6.07
2017-01-28T23:38:24.658Z,-6.11
2017-01-28T23:40:36.922Z,-6.13
2017-01-28T23:42:49.693Z,-6.16
2017-01-28T23:45:02.326Z,-6.2
2017-01-28T23:47:14.711Z,-6.22
2017-01-28T23:49:26.958Z,-6.23
2017-01-28T23:51:39.153Z,-6.26
2017-01-28T23:53:51.780Z,-6.29
2017-01-28T23:56:04.025Z,-6.32
2017-01-28T23:58:16.251Z,-6.36
